createdAt,value
2018-12-29T00:00:34.209Z,14.40
2018-12-29T00:03:42.832Z,13.47
2018-12-29T00:06:57.100Z,11.50
2018-12-29T00:10:04.063Z,11.78
2018-12-29T00:13:11.087Z,15.00
2018-12-29T00:16:17.959Z,12.03
2018-12-29T00:19:25.892Z,14.67
2018-12-29T00:22:34.646Z,15.37
2018-12-29T00:26:01.504Z,14.25
2018-12-29T00:29:19.038Z,11.83
2018-12-29T00:32:22.882Z,13.43
2018-12-29T00:35:31.108Z,9.63
2018-12-29T00:38:38.042Z,13.60
2018-12-29T00:41:46.809Z,12.47
2018-12-29T00:45:02.749Z,12.70
2018-12-29T00:48:11.581Z,12.00
2018-12-29T00:51:18.820Z,11.73
2018-12-29T00:54:26.486Z,12.47
2018-12-29T00:57:33.452Z,12.50
2018-12-29T01:00:40.139Z,12.33
2018-12-29T01:03:46.850Z,13.77
2018-12-29T01:06:53.794Z,13.35
2018-12-29T01:10:00.568Z,11.63
2018-12-29T01:13:07.469Z,12.03
2018-12-29T01:16:15.075Z,11.97
2018-12-29T01:19:22.155Z,12.90
2018-12-29T01:22:29.075Z,11.60
2018-12-29T01:25:35.915Z,11.30
2018-12-29T01:28:42.795Z,12.80
2018-12-29T01:31:49.809Z,12.07
2018-12-29T01:34:56.818Z,9.38
2018-12-29T01:38:13.010Z,11.37
2018-12-29T01:41:39.828Z,10.63
2018-12-29T01:44:46.828Z,11.25
2018-12-29T01:47:53.592Z,9.33
2018-12-29T01:51:00.544Z,11.30
2018-12-29T01:54:10.226Z,10.20
2018-12-29T01:57:16.932Z,9.50
2018-12-29T02:00:23.944Z,9.07
2018-12-29T02:03:30.791Z,10.50
2018-12-29T02:06:37.799Z,9.27
2018-12-29T02:09:44.466Z,8.43
2018-12-29T02:12:51.379Z,8.73
2018-12-29T02:15:58.090Z,8.83
2018-12-29T02:19:05.336Z,8.57
2018-12-29T02:22:12.332Z,7.40
2018-12-29T02:25:19.294Z,10.10
2018-12-29T02:28:26.195Z,8.53
2018-12-29T02:31:32.939Z,8.20
2018-12-29T02:34:40.110Z,8.28
2018-12-29T02:37:46.974Z,7.30
2018-12-29T02:40:53.698Z,6.97
2018-12-29T02:44:00.413Z,7.73
2018-12-29T02:47:07.520Z,7.93
2018-12-29T02:50:14.451Z,6.87
2018-12-29T02:53:21.370Z,7.27
2018-12-29T02:56:28.077Z,6.23
2018-12-29T02:59:35.260Z,5.83
2018-12-29T03:02:42.262Z,6.03
2018-12-29T03:05:49.142Z,6.50
2018-12-29T03:08:56.074Z,6.37
2018-12-29T03:12:03.454Z,4.57
2018-12-29T03:15:10.193Z,6.63
2018-12-29T03:18:17.968Z,5.07
2018-12-29T03:21:25.151Z,5.00
2018-12-29T03:24:32.063Z,4.73
2018-12-29T03:27:38.799Z,5.50
2018-12-29T03:30:46.050Z,5.03
2018-12-29T03:33:52.832Z,4.87
2018-12-29T03:36:59.731Z,6.60
2018-12-29T03:40:07.663Z,6.33
2018-12-29T03:43:14.568Z,6.23
2018-12-29T03:46:21.738Z,6.12
2018-12-29T03:49:29.100Z,5.90
2018-12-29T03:52:36.277Z,3.95
2018-12-29T03:55:42.980Z,6.03
2018-12-29T03:58:50.053Z,6.15
2018-12-29T04:01:56.987Z,5.50
2018-12-29T04:05:03.952Z,6.80
2018-12-29T04:08:13.953Z,4.58
2018-12-29T04:11:20.989Z,4.70
2018-12-29T04:14:27.698Z,4.10
2018-12-29T04:17:34.507Z,5.53
2018-12-29T04:20:41.597Z,3.97
2018-12-29T04:23:48.894Z,5.87
2018-12-29T04:26:55.908Z,4.42
2018-12-29T04:30:02.626Z,4.83
2018-12-29T04:33:09.349Z,5.47
2018-12-29T04:36:16.451Z,4.30
2018-12-29T04:39:23.396Z,4.73
2018-12-29T04:42:30.691Z,4.45
2018-12-29T04:45:37.408Z,4.80
2018-12-29T04:48:47.012Z,5.10
2018-12-29T04:51:54.001Z,4.83
2018-12-29T04:55:00.735Z,6.20
2018-12-29T04:58:07.456Z,4.70
2018-12-29T05:01:14.457Z,5.60
2018-12-29T05:04:21.364Z,5.07
2018-12-29T05:07:28.319Z,5.83
2018-12-29T05:10:35.215Z,6.70
2018-12-29T05:13:42.350Z,5.37
2018-12-29T05:16:49.307Z,6.07
2018-12-29T05:19:56.248Z,6.60
2018-12-29T05:23:04.247Z,6.90
2018-12-29T05:26:11.895Z,8.30
2018-12-29T05:29:18.824Z,6.63
2018-12-29T05:32:26.040Z,5.92
2018-12-29T05:35:32.725Z,7.57
2018-12-29T05:38:39.732Z,7.80
2018-12-29T05:41:47.870Z,7.03
2018-12-29T05:44:55.221Z,8.30
2018-12-29T05:48:02.117Z,7.43
2018-12-29T05:51:09.141Z,8.10
2018-12-29T05:54:16.328Z,8.35
2018-12-29T05:57:23.071Z,7.77
2018-12-29T06:00:29.989Z,8.13
2018-12-29T06:03:39.880Z,8.37
2018-12-29T06:06:46.828Z,10.40
2018-12-29T06:09:54.073Z,7.67
2018-12-29T06:13:00.795Z,9.20
2018-12-29T06:16:07.779Z,7.95
2018-12-29T06:19:14.696Z,7.23
2018-12-29T06:22:21.653Z,7.10
2018-12-29T06:25:28.905Z,7.85
2018-12-29T06:28:35.956Z,8.63
2018-12-29T06:31:42.862Z,8.70
2018-12-29T06:34:49.758Z,9.03
2018-12-29T06:37:56.438Z,8.30
2018-12-29T06:41:03.692Z,7.50
2018-12-29T06:44:10.400Z,7.57
2018-12-29T06:47:17.199Z,9.27
2018-12-29T06:50:23.954Z,8.43
2018-12-29T06:53:30.680Z,7.00
2018-12-29T06:56:37.375Z,7.13
2018-12-29T06:59:44.128Z,6.83
2018-12-29T07:02:50.837Z,7.30
2018-12-29T07:05:58.236Z,7.33
2018-12-29T07:09:06.620Z,7.67
2018-12-29T07:12:26.510Z,8.57
2018-12-29T07:15:33.385Z,7.40
2018-12-29T07:18:40.109Z,8.73
2018-12-29T07:21:46.795Z,7.00
2018-12-29T07:24:53.999Z,7.20
2018-12-29T07:28:01.098Z,9.90
2018-12-29T07:31:08.369Z,8.20
2018-12-29T07:34:15.359Z,6.87
2018-12-29T07:37:22.619Z,7.57
2018-12-29T07:40:31.305Z,9.33
2018-12-29T07:43:38.469Z,8.83
2018-12-29T07:46:49.641Z,9.10
2018-12-29T07:49:53.895Z,10.55
2018-12-29T07:53:01.031Z,10.43
2018-12-29T07:56:08.032Z,8.63
2018-12-29T07:59:15.371Z,7.62
2018-12-29T08:02:22.250Z,9.10
2018-12-29T08:05:29.314Z,8.90
2018-12-29T08:11:51.823Z,9.50
2018-12-29T08:14:58.879Z,8.90
2018-12-29T08:18:07.522Z,7.70
2018-12-29T08:21:14.332Z,21.43
2018-12-29T08:24:39.648Z,12.93
2018-12-29T08:27:46.610Z,18.35
2018-12-29T08:30:53.310Z,21.93
2018-12-29T08:34:01.864Z,32.67
2018-12-29T08:37:08.921Z,20.50
2018-12-29T08:40:15.898Z,32.80
2018-12-29T08:43:22.870Z,11.90
2018-12-29T08:46:29.983Z,9.20
2018-12-29T08:49:36.794Z,8.70
2018-12-29T08:52:43.499Z,8.83
2018-12-29T08:55:50.438Z,9.07
2018-12-29T08:58:57.478Z,10.77
2018-12-29T09:02:04.701Z,7.47
2018-12-29T09:05:11.418Z,8.50
2018-12-29T09:08:18.145Z,8.23
2018-12-29T09:11:25.005Z,8.37
2018-12-29T09:14:31.940Z,7.63
2018-12-29T09:17:38.894Z,8.67
2018-12-29T09:20:46.712Z,8.00
2018-12-29T09:23:56.237Z,8.83
2018-12-29T09:27:03.167Z,7.00
2018-12-29T09:30:10.021Z,7.70
2018-12-29T09:33:17.049Z,9.70
2018-12-29T09:36:24.022Z,6.73
2018-12-29T09:39:30.946Z,12.13
2018-12-29T09:42:37.839Z,10.87
2018-12-29T09:45:44.637Z,13.40
2018-12-29T09:48:51.280Z,9.70
2018-12-29T09:52:00.222Z,9.07
2018-12-29T09:55:07.244Z,7.92
2018-12-29T09:58:15.051Z,9.83
2018-12-29T10:01:22.263Z,9.13
2018-12-29T10:04:29.427Z,7.90
2018-12-29T10:07:36.605Z,7.33
2018-12-29T10:10:43.542Z,7.07
2018-12-29T10:13:50.675Z,6.62
2018-12-29T10:16:57.513Z,6.07
2018-12-29T10:20:04.464Z,7.60
2018-12-29T10:23:11.476Z,6.60
2018-12-29T10:26:19.401Z,6.60
2018-12-29T10:29:26.442Z,7.15
2018-12-29T10:32:33.425Z,6.70
2018-12-29T10:35:40.353Z,7.53
2018-12-29T10:38:47.578Z,7.60
2018-12-29T10:41:54.612Z,5.70
2018-12-29T10:45:12.167Z,6.17
2018-12-29T10:48:21.082Z,6.78
2018-12-29T10:51:27.776Z,7.60
2018-12-29T10:54:34.534Z,7.77
2018-12-29T10:57:46.723Z,5.90
2018-12-29T11:00:53.696Z,7.53
2018-12-29T11:04:00.671Z,6.92
2018-12-29T11:07:07.699Z,5.85
2018-12-29T11:10:17.245Z,6.27
2018-12-29T11:13:26.603Z,6.67
2018-12-29T11:16:34.513Z,6.27
2018-12-29T11:19:41.586Z,5.83
2018-12-29T11:22:48.614Z,7.40
2018-12-29T11:25:56.502Z,7.00
2018-12-29T11:29:03.709Z,6.87
2018-12-29T11:32:10.704Z,7.40
2018-12-29T11:35:17.628Z,6.03
2018-12-29T11:38:24.587Z,6.10
2018-12-29T11:41:32.142Z,6.20
2018-12-29T11:44:39.099Z,5.93
2018-12-29T11:47:49.892Z,6.72
2018-12-29T11:50:55.099Z,5.30
2018-12-29T11:54:01.810Z,6.53
2018-12-29T11:57:08.618Z,7.93
2018-12-29T12:00:15.414Z,5.97
2018-12-29T12:03:22.309Z,6.50
2018-12-29T12:06:30.890Z,6.30
2018-12-29T12:09:37.949Z,5.50
2018-12-29T12:12:44.923Z,6.40
2018-12-29T12:15:54.338Z,6.42
2018-12-29T12:19:03.029Z,7.27
2018-12-29T12:22:11.712Z,7.55
2018-12-29T12:25:18.452Z,7.57
2018-12-29T12:28:25.676Z,7.90
2018-12-29T12:31:32.661Z,7.63
2018-12-29T12:34:39.814Z,6.62
2018-12-29T12:37:47.424Z,6.43
2018-12-29T12:40:54.746Z,5.12
2018-12-29T12:44:02.092Z,6.70
2018-12-29T12:47:08.913Z,6.50
2018-12-29T12:50:15.681Z,7.50
2018-12-29T12:53:23.137Z,7.97
2018-12-29T12:56:33.150Z,6.83
2018-12-29T12:59:40.276Z,7.80
2018-12-29T13:02:47.192Z,7.77
2018-12-29T13:05:54.136Z,7.03
2018-12-29T13:09:05.667Z,6.90
2018-12-29T13:12:12.674Z,6.37
2018-12-29T13:15:19.603Z,6.57
2018-12-29T13:18:26.650Z,5.73
2018-12-29T13:21:33.689Z,8.00
2018-12-29T13:24:40.530Z,6.07
2018-12-29T13:27:47.486Z,7.10
2018-12-29T13:30:54.432Z,7.97
2018-12-29T13:34:01.618Z,6.10
2018-12-29T13:37:09.472Z,7.70
2018-12-29T13:40:18.456Z,7.10
2018-12-29T13:43:25.560Z,7.00
2018-12-29T13:46:32.843Z,6.47
2018-12-29T13:49:39.941Z,7.03
2018-12-29T13:52:48.171Z,7.50
2018-12-29T13:56:20.257Z,7.00
2018-12-29T13:59:27.228Z,7.17
2018-12-29T14:02:49.345Z,7.47
2018-12-29T14:05:59.443Z,7.87
2018-12-29T14:09:07.811Z,7.53
2018-12-29T14:12:15.626Z,6.30
2018-12-29T14:15:22.905Z,6.55
2018-12-29T14:18:29.765Z,6.97
2018-12-29T14:21:40.683Z,7.67
2018-12-29T14:24:45.793Z,5.93
2018-12-29T14:27:52.923Z,7.00
2018-12-29T14:30:59.894Z,8.43
2018-12-29T14:34:06.851Z,8.07
2018-12-29T14:37:15.771Z,9.73
2018-12-29T14:40:22.409Z,7.13
2018-12-29T14:43:29.436Z,9.20
2018-12-29T14:46:36.716Z,9.60
2018-12-29T14:49:45.411Z,7.83
2018-12-29T14:52:52.147Z,10.47
2018-12-29T14:55:58.820Z,9.37
2018-12-29T14:59:11.966Z,9.60
2018-12-29T15:02:19.171Z,10.00
2018-12-29T15:05:26.169Z,8.73
2018-12-29T15:08:34.367Z,10.50
2018-12-29T15:13:20.924Z,9.00
2018-12-29T15:16:47.606Z,9.90
2018-12-29T15:20:03.519Z,10.48
2018-12-29T15:23:23.461Z,9.90
2018-12-29T15:28:51.897Z,11.10
2018-12-29T15:32:03.037Z,10.23
2018-12-29T15:35:09.998Z,16.80
2018-12-29T15:38:17.152Z,13.75
2018-12-29T15:41:24.533Z,12.10
2018-12-29T15:44:32.336Z,13.20
2018-12-29T15:47:40.004Z,9.50
2018-12-29T15:50:48.230Z,10.08
2018-12-29T15:53:54.991Z,9.20
2018-12-29T15:57:02.077Z,9.73
2018-12-29T16:00:10.281Z,10.93
2018-12-29T16:03:17.051Z,11.63
2018-12-29T16:06:24.459Z,11.33
2018-12-29T16:09:31.518Z,9.00
2018-12-29T16:12:41.277Z,10.50
2018-12-29T16:15:51.178Z,9.97
2018-12-29T16:18:59.443Z,10.10
2018-12-29T16:22:07.531Z,10.15
2018-12-29T16:25:14.336Z,9.77
2018-12-29T16:28:21.461Z,16.17
2018-12-29T16:31:28.760Z,12.43
2018-12-29T16:34:37.356Z,9.20
2018-12-29T16:37:44.689Z,6.40
2018-12-29T16:40:57.782Z,9.60
2018-12-29T16:44:01.274Z,9.03
2018-12-29T16:47:08.374Z,7.72
2018-12-29T16:50:16.023Z,9.30
2018-12-29T16:53:29.101Z,10.77
2018-12-29T16:56:31.782Z,9.77
2018-12-29T16:59:39.250Z,16.43
2018-12-29T17:02:46.293Z,8.45
2018-12-29T17:05:53.432Z,10.40
2018-12-29T17:09:00.255Z,8.10
2018-12-29T17:12:07.353Z,7.33
2018-12-29T17:15:14.246Z,8.93
2018-12-29T17:18:22.705Z,8.43
2018-12-29T17:21:29.753Z,6.77
2018-12-29T17:24:36.828Z,7.77
2018-12-29T17:27:46.197Z,9.93
2018-12-29T17:30:59.084Z,11.47
2018-12-29T17:34:06.601Z,11.30
2018-12-29T17:37:13.307Z,8.30
2018-12-29T17:40:20.598Z,19.23
2018-12-29T17:43:27.429Z,12.30
2018-12-29T17:46:34.171Z,12.80
2018-12-29T17:49:42.070Z,8.37
2018-12-29T17:52:49.780Z,8.43
2018-12-29T17:55:57.361Z,8.13
2018-12-29T17:59:04.644Z,7.45
2018-12-29T18:02:11.662Z,8.90
2018-12-29T18:05:18.815Z,7.27
2018-12-29T18:08:26.141Z,7.47
2018-12-29T18:11:33.098Z,6.30
2018-12-29T18:14:40.358Z,6.95
2018-12-29T18:17:47.196Z,6.70
2018-12-29T18:20:54.212Z,8.30
2018-12-29T18:24:01.284Z,8.53
2018-12-29T18:27:08.347Z,6.30
2018-12-29T18:30:15.202Z,8.37
2018-12-29T18:33:22.367Z,7.80
2018-12-29T18:36:29.748Z,10.95
2018-12-29T18:39:36.884Z,11.03
2018-12-29T18:42:44.122Z,7.37
2018-12-29T18:45:50.960Z,8.80
2018-12-29T18:48:58.008Z,9.13
2018-12-29T18:52:04.945Z,8.90
2018-12-29T18:55:12.420Z,12.20
2018-12-29T18:58:20.615Z,9.30
2018-12-29T19:01:28.705Z,8.30
2018-12-29T19:04:35.711Z,13.13
2018-12-29T19:07:42.948Z,8.73
2018-12-29T19:10:49.941Z,9.83
2018-12-29T19:13:58.692Z,7.03
2018-12-29T19:17:05.475Z,9.47
2018-12-29T19:20:13.181Z,9.70
2018-12-29T19:23:20.308Z,5.83
2018-12-29T19:26:27.848Z,6.20
2018-12-29T19:29:35.093Z,7.70
2018-12-29T19:32:42.695Z,6.10
2018-12-29T19:35:49.962Z,7.83
2018-12-29T19:38:57.898Z,6.80
2018-12-29T19:42:04.938Z,9.20
2018-12-29T19:45:12.241Z,4.35
2018-12-29T19:48:20.371Z,8.27
2018-12-29T19:51:27.766Z,6.33
2018-12-29T19:54:34.523Z,7.37
2018-12-29T19:57:42.440Z,5.23
2018-12-29T20:00:49.911Z,5.03
2018-12-29T20:03:57.125Z,4.80
2018-12-29T20:07:04.131Z,5.40
2018-12-29T20:10:11.275Z,4.15
2018-12-29T20:13:19.475Z,5.20
2018-12-29T20:16:26.581Z,4.20
2018-12-29T20:19:33.714Z,4.20
2018-12-29T20:22:41.131Z,3.93
2018-12-29T20:25:48.388Z,11.83
2018-12-29T20:28:57.098Z,4.00
2018-12-29T20:32:04.006Z,4.00
2018-12-29T20:35:11.012Z,5.83
2018-12-29T20:38:18.225Z,3.40
2018-12-29T20:41:26.229Z,3.07
2018-12-29T20:44:33.243Z,2.60
2018-12-29T20:47:40.526Z,2.40
2018-12-29T20:50:47.601Z,2.30
2018-12-29T20:53:54.658Z,2.80
2018-12-29T20:57:01.410Z,2.40
2018-12-29T21:00:11.070Z,1.80
2018-12-29T21:03:19.142Z,2.35
2018-12-29T21:06:27.164Z,1.52
2018-12-29T21:09:33.959Z,1.60
2018-12-29T21:12:41.170Z,2.50
2018-12-29T21:15:48.800Z,2.10
2018-12-29T21:18:55.929Z,1.70
2018-12-29T21:22:03.004Z,1.60
2018-12-29T21:25:10.341Z,1.73
2018-12-29T21:28:17.134Z,2.87
2018-12-29T21:31:24.367Z,2.08
2018-12-29T21:34:32.461Z,1.70
2018-12-29T21:37:39.883Z,1.77
2018-12-29T21:40:46.725Z,1.90
2018-12-29T21:43:53.464Z,1.83
2018-12-29T21:47:00.486Z,1.80
2018-12-29T21:50:08.422Z,1.67
2018-12-29T21:53:15.619Z,1.50
2018-12-29T21:56:22.720Z,1.90
2018-12-29T21:59:29.700Z,1.47
2018-12-29T22:02:37.520Z,1.40
2018-12-29T22:05:44.426Z,1.60
2018-12-29T22:08:51.578Z,1.67
2018-12-29T22:11:58.364Z,1.50
2018-12-29T22:15:08.932Z,2.10
2018-12-29T22:18:19.038Z,1.40
2018-12-29T22:21:26.723Z,1.60
2018-12-29T22:24:33.488Z,2.23
2018-12-29T22:27:40.979Z,1.60
2018-12-29T22:30:48.046Z,1.47
2018-12-29T22:33:54.936Z,1.60
2018-12-29T22:37:02.731Z,1.57
2018-12-29T22:40:10.138Z,1.50
2018-12-29T22:43:17.227Z,1.62
2018-12-29T22:46:24.106Z,2.10
2018-12-29T22:49:31.109Z,1.50
2018-12-29T22:52:38.238Z,1.97
2018-12-29T22:55:45.335Z,1.70
2018-12-29T22:58:52.251Z,2.03
2018-12-29T23:02:05.835Z,1.90
2018-12-29T23:05:14.823Z,2.40
2018-12-29T23:08:22.101Z,2.53
2018-12-29T23:11:29.732Z,2.77
2018-12-29T23:14:36.986Z,2.60
2018-12-29T23:17:44.325Z,2.83
2018-12-29T23:20:51.965Z,3.07
2018-12-29T23:24:00.003Z,2.30
2018-12-29T23:27:07.090Z,3.27
2018-12-29T23:30:14.267Z,2.70
2018-12-29T23:33:21.562Z,2.58
2018-12-29T23:36:28.615Z,2.83
2018-12-29T23:39:35.636Z,2.83
2018-12-29T23:42:42.675Z,3.10
2018-12-29T23:45:49.699Z,3.60
2018-12-29T23:48:56.532Z,2.70
2018-12-29T23:52:03.309Z,3.20
2018-12-29T23:55:10.120Z,3.30
2018-12-29T23:58:17.650Z,3.70
